Time;durP1;ratioP1;P1;durP2;ratioP2;P2;SDS_P1;SDS_P2;PMS_P1;PMS_P2;Temp;Humidity;BMP_temperature;BMP_pressure;BME280_temperature;BME280_humidity;BME280_pressure;Samples;Min_cycle;Max_cycle;Signal;HPM_P1;HPM_P2
2021/12/17 00:05:06;;;;;;;38.35;16.83;;;8.40;99.90;;;;;;5055143;28;20107;-76
2021/12/17 00:07:35;;;;;;;54.45;17.85;;;8.40;99.90;;;;;;5055859;28;20056;-79
2021/12/17 00:10:13;;;;;;;53.47;18.75;;;8.40;99.90;;;;;;5072922;28;20044;-79
2021/12/17 00:12:39;;;;;;;60.97;18.67;;;8.40;99.90;;;;;;5074615;28;20040;-78
2021/12/17 00:15:07;;;;;;;61.78;18.70;;;8.40;99.90;;;;;;5073841;28;20048;-78
2021/12/17 00:17:36;;;;;;;52.25;18.63;;;8.40;99.90;;;;;;5073907;28;20036;-79
2021/12/17 00:52:22;;;;;;;26.80;14.02;;;8.40;99.90;;;;;;5073669;28;20051;-76
2021/12/17 00:54:47;;;;;;;39.58;15.40;;;8.40;99.90;;;;;;5074226;28;20044;-77
2021/12/17 00:57:19;;;;;;;40.85;16.52;;;8.40;99.90;;;;;;5055986;28;20499;-77
2021/12/17 00:59:48;;;;;;;36.88;15.52;;;8.40;99.90;;;;;;5073795;28;20120;-78
2021/12/17 01:02:16;;;;;;;37.50;14.73;;;8.40;99.90;;;;;;5056378;28;20384;-78
2021/12/17 01:04:49;;;;;;;15.52;9.60;;;8.40;99.90;;;;;;5091486;28;20048;-77
2021/12/17 01:07:15;;;;;;;17.40;10.05;;;8.40;99.90;;;;;;5073250;28;20545;-78
2021/12/17 01:09:42;;;;;;;18.02;10.27;;;8.40;99.90;;;;;;5069976;28;20060;-74
2021/12/17 01:12:09;;;;;;;16.73;9.52;;;8.40;99.90;;;;;;5072530;28;20040;-73
2021/12/17 01:14:36;;;;;;;18.15;10.05;;;8.40;99.90;;;;;;5053850;28;20048;-77
2021/12/17 01:17:04;;;;;;;20.08;10.77;;;8.40;99.90;;;;;;5052812;28;20048;-77
2021/12/17 01:22:44;;;;;;;19.77;10.80;;;8.40;99.90;;;;;;5051748;28;20507;-77
2021/12/17 01:25:11;;;;;;;25.15;10.85;;;8.40;99.90;;;;;;5072318;28;20040;-76
2021/12/17 01:35:49;;;;;;;21.50;9.88;;;8.40;99.90;;;;;;5072643;28;20522;-77
2021/12/17 01:41:45;;;;;;;33.45;11.90;;;8.40;99.90;;;;;;5072719;28;20040;-78
2021/12/17 01:44:05;;;;;;;27.13;11.57;;;8.40;99.90;;;;;;5069739;28;20053;-77
2021/12/17 01:46:33;;;;;;;33.63;13.75;;;8.40;99.90;;;;;;5043845;28;20044;-77
2021/12/17 02:00:12;;;;;;;34.60;15.27;;;8.40;99.90;;;;;;5072155;28;20048;-76
2021/12/17 02:02:44;;;;;;;33.38;14.63;;;8.40;99.90;;;;;;5056018;28;20036;-76
2021/12/17 02:05:11;;;;;;;29.13;14.40;;;8.40;99.90;;;;;;5072858;28;20405;-76
2021/12/17 02:07:38;;;;;;;31.83;15.00;;;8.40;99.90;;;;;;5055498;28;20126;-75
2021/12/17 02:19:41;;;;;;;32.85;14.63;;;8.40;99.90;;;;;;5069258;28;20052;-76
2021/12/17 02:31:57;;;;;;;27.70;13.23;;;8.40;99.90;;;;;;5072924;28;20081;-76
2021/12/17 02:37:12;;;;;;;25.40;11.88;;;8.40;99.90;;;;;;5071912;28;20514;-77
2021/12/17 02:47:32;;;;;;;21.02;10.98;;;8.40;99.90;;;;;;5071944;28;20055;-77
2021/12/17 02:49:58;;;;;;;23.50;11.50;;;8.40;99.90;;;;;;5057681;28;20048;-76
2021/12/17 02:52:30;;;;;;;24.33;12.27;;;8.40;99.90;;;;;;5076057;28;20369;-76
2021/12/17 02:54:59;;;;;;;25.38;11.90;;;8.40;99.90;;;;;;5073034;28;20051;-77
2021/12/17 02:57:26;;;;;;;17.60;10.00;;;8.40;99.90;;;;;;5091828;28;20091;-75
2021/12/17 02:59:52;;;;;;;18.95;10.45;;;8.30;99.90;;;;;;5095980;28;20159;-75
2021/12/17 03:02:23;;;;;;;23.65;11.75;;;8.40;99.90;;;;;;5095003;28;20066;-75
2021/12/17 03:04:49;;;;;;;22.33;11.50;;;8.40;99.90;;;;;;5093960;28;20223;-75
2021/12/17 03:07:15;;;;;;;21.80;12.25;;;8.40;99.90;;;;;;5064591;28;20036;-76
2021/12/17 03:12:17;;;;;;;19.58;11.20;;;8.40;99.90;;;;;;5095429;28;20036;-75
2021/12/17 03:14:51;;;;;;;22.15;11.52;;;8.40;99.90;;;;;;5095907;28;20043;-75
2021/12/17 03:17:30;;;;;;;20.88;11.23;;;8.40;99.90;;;;;;5108138;28;20432;-75
2021/12/17 03:25:06;;;;;;;20.10;11.02;;;8.30;99.90;;;;;;5095419;28;20054;-81
2021/12/17 03:27:31;;;;;;;24.15;11.95;;;8.30;99.90;;;;;;5095971;28;20059;-80
2021/12/17 03:29:57;;;;;;;25.55;12.20;;;8.30;99.90;;;;;;5079052;28;20032;-81
2021/12/17 03:32:23;;;;;;;25.67;11.52;;;8.30;99.90;;;;;;5086330;28;20047;-79
2021/12/17 03:34:50;;;;;;;25.80;12.40;;;8.30;99.90;;;;;;5078253;28;20043;-79
2021/12/17 03:37:16;;;;;;;27.60;12.30;;;8.30;99.90;;;;;;5108741;28;20549;-80
2021/12/17 03:39:42;;;;;;;20.38;10.68;;;8.30;99.90;;;;;;5069560;28;20048;-81
2021/12/17 03:42:09;;;;;;;22.17;11.00;;;8.30;99.90;;;;;;5078716;28;20042;-79
2021/12/17 03:44:35;;;;;;;27.85;11.73;;;8.30;99.90;;;;;;5078972;28;20452;-78
2021/12/17 03:47:03;;;;;;;23.15;11.07;;;8.30;99.90;;;;;;5077653;28;20060;-78
2021/12/17 03:49:28;;;;;;;26.08;12.25;;;8.30;99.90;;;;;;5078275;28;20059;-77
2021/12/17 03:52:04;;;;;;;32.35;12.32;;;8.30;99.90;;;;;;5092399;28;20135;-79
2021/12/17 03:54:35;;;;;;;23.50;11.50;;;8.30;99.90;;;;;;5094612;28;20154;-77
2021/12/17 03:57:04;;;;;;;22.73;10.60;;;8.30;99.90;;;;;;5094924;28;20048;-77
2021/12/17 03:59:30;;;;;;;19.50;11.00;;;8.30;99.90;;;;;;5077454;28;20079;-76
2021/12/17 04:01:56;;;;;;;25.63;12.10;;;8.30;99.90;;;;;;5064379;28;20087;-79
2021/12/17 04:04:22;;;;;;;22.60;10.77;;;8.30;99.90;;;;;;5095227;28;20487;-79
2021/12/17 04:06:48;;;;;;;18.55;10.25;;;8.30;99.90;;;;;;5109682;28;20127;-79
2021/12/17 04:09:16;;;;;;;28.02;10.88;;;8.30;99.90;;;;;;5073300;28;20044;-78
2021/12/17 04:11:42;;;;;;;32.67;12.40;;;8.30;99.90;;;;;;5105346;28;20486;-77
2021/12/17 04:14:07;;;;;;;23.52;10.88;;;8.30;99.90;;;;;;5077170;28;20044;-78
2021/12/17 04:16:34;;;;;;;18.85;9.82;;;8.30;99.90;;;;;;5094930;28;20135;-81
2021/12/17 04:19:00;;;;;;;23.88;10.90;;;8.30;99.90;;;;;;5093762;28;20044;-87
2021/12/17 04:21:26;;;;;;;33.17;12.85;;;8.30;99.90;;;;;;5077476;28;20054;-78
2021/12/17 04:23:56;;;;;;;29.73;12.80;;;8.30;99.90;;;;;;5094375;28;20488;-79
2021/12/17 04:26:23;;;;;;;26.02;11.80;;;8.30;99.90;;;;;;5077583;28;20126;-78
2021/12/17 04:28:51;;;;;;;22.38;10.80;;;8.20;99.90;;;;;;5090528;28;20094;-77
2021/12/17 04:31:19;;;;;;;21.15;10.85;;;8.30;99.90;;;;;;5082055;28;20084;-80
2021/12/17 04:33:45;;;;;;;31.67;11.52;;;8.20;99.90;;;;;;5094095;28;20063;-82
2021/12/17 04:36:16;;;;;;;28.67;12.15;;;8.30;99.90;;;;;;5070124;28;20078;-81
2021/12/17 04:38:42;;;;;;;24.45;11.77;;;8.20;99.90;;;;;;5086661;28;20035;-81
2021/12/17 04:44:01;;;;;;;32.10;12.75;;;8.20;99.90;;;;;;5093582;28;20127;-81
2021/12/17 04:59:52;;;;;;;19.10;10.05;;;8.20;99.90;;;;;;5093156;28;20051;-81
2021/12/17 05:02:19;;;;;;;18.23;9.73;;;8.20;99.90;;;;;;5076862;28;20040;-81
2021/12/17 05:04:45;;;;;;;15.63;8.85;;;8.20;99.90;;;;;;5073028;28;20044;-80
2021/12/17 05:07:13;;;;;;;18.67;9.57;;;8.20;99.90;;;;;;5057777;28;20396;-80
2021/12/17 05:09:54;;;;;;;17.75;8.55;;;8.20;99.90;;;;;;5093362;28;20431;-79
2021/12/17 05:20:56;;;;;;;19.27;9.45;;;8.30;99.90;;;;;;5073743;28;20073;-77
2021/12/17 05:23:28;;;;;;;20.27;9.55;;;8.20;99.90;;;;;;5083238;28;20047;-78
2021/12/17 05:25:54;;;;;;;18.95;9.73;;;8.20;99.90;;;;;;5092958;28;20448;-77
2021/12/17 05:28:20;;;;;;;26.13;10.00;;;8.20;99.90;;;;;;5093059;28;20075;-76
2021/12/17 05:30:47;;;;;;;19.60;9.73;;;8.20;99.90;;;;;;5074910;28;20087;-78
2021/12/17 05:33:17;;;;;;;17.10;9.40;;;8.20;99.90;;;;;;5093015;28;20054;-78
2021/12/17 05:35:44;;;;;;;21.00;9.88;;;8.20;99.90;;;;;;5076786;28;20139;-78
2021/12/17 05:38:10;;;;;;;24.50;10.30;;;8.20;99.90;;;;;;5075779;28;20165;-78
2021/12/17 05:40:37;;;;;;;18.45;8.65;;;8.20;99.90;;;;;;5093501;28;20543;-78
2021/12/17 05:43:05;;;;;;;38.58;10.65;;;8.20;99.90;;;;;;5093072;28;20039;-77
2021/12/17 05:45:36;;;;;;;19.35;9.52;;;8.30;99.90;;;;;;5092726;28;20042;-79
2021/12/17 05:48:04;;;;;;;19.90;9.00;;;8.10;99.90;;;;;;5073343;28;20691;-80
2021/12/17 05:50:31;;;;;;;25.73;9.50;;;8.20;99.90;;;;;;5060734;28;20048;-80
2021/12/17 05:52:57;;;;;;;19.38;8.85;;;8.20;99.90;;;;;;5092376;28;20050;-80
2021/12/17 05:55:23;;;;;;;14.90;8.68;;;8.20;99.90;;;;;;5075616;28;20400;-80
2021/12/17 05:57:48;;;;;;;35.15;10.65;;;8.20;99.90;;;;;;5092706;28;20040;-80
2021/12/17 06:00:15;;;;;;;18.52;9.05;;;8.20;99.90;;;;;;5075742;28;20119;-79
2021/12/17 06:02:40;;;;;;;28.85;10.38;;;8.20;99.90;;;;;;5062592;28;20044;-79
2021/12/17 06:05:06;;;;;;;29.63;9.90;;;8.20;99.90;;;;;;5073898;28;20048;-79
2021/12/17 06:07:32;;;;;;;19.17;9.43;;;8.20;99.90;;;;;;5099565;28;20039;-78
2021/12/17 06:10:03;;;;;;;25.63;9.18;;;8.20;99.90;;;;;;5093005;28;20089;-79
2021/12/17 06:12:29;;;;;;;24.33;9.63;;;8.20;99.90;;;;;;5076097;28;20042;-81
2021/12/17 06:14:55;;;;;;;17.17;8.90;;;8.20;99.90;;;;;;5075491;28;20048;-81
2021/12/17 06:17:20;;;;;;;21.63;9.30;;;8.20;99.90;;;;;;5075839;28;20118;-79
2021/12/17 06:19:47;;;;;;;22.13;9.27;;;8.20;99.90;;;;;;5075667;28;20051;-81
2021/12/17 06:22:15;;;;;;;25.38;9.95;;;8.20;99.90;;;;;;5092424;28;20172;-81
2021/12/17 06:24:44;;;;;;;28.58;9.90;;;8.20;99.90;;;;;;5094818;28;20047;-76
2021/12/17 06:27:11;;;;;;;21.00;9.50;;;8.20;99.90;;;;;;5096181;28;20036;-82
2021/12/17 06:29:37;;;;;;;24.65;10.15;;;8.20;99.90;;;;;;5097182;28;20086;-82
2021/12/17 06:32:03;;;;;;;25.80;11.07;;;8.20;99.90;;;;;;5086854;28;20039;-81
2021/12/17 06:34:29;;;;;;;18.52;9.75;;;8.20;99.90;;;;;;5079569;28;20677;-75
2021/12/17 06:36:55;;;;;;;30.80;11.63;;;8.20;99.90;;;;;;5079867;28;20059;-81
2021/12/17 06:39:20;;;;;;;18.33;9.70;;;8.20;99.90;;;;;;5096574;28;20040;-76
2021/12/17 06:41:46;;;;;;;22.35;9.82;;;8.20;99.90;;;;;;5095591;28;20044;-81
2021/12/17 06:44:14;;;;;;;22.30;10.70;;;8.20;99.90;;;;;;5096532;28;20396;-82
2021/12/17 06:54:36;;;;;;;27.73;12.02;;;8.20;99.90;;;;;;5095752;28;20044;-82
2021/12/17 07:00:05;;;;;;;24.92;12.32;;;8.20;99.90;;;;;;5092338;28;20545;-81
2021/12/17 07:10:49;;;;;;;31.17;11.63;;;8.20;99.90;;;;;;5090303;28;20052;-80
2021/12/17 07:24:36;;;;;;;19.63;9.75;;;8.10;99.90;;;;;;5095489;28;20108;-82
2021/12/17 07:32:30;;;;;;;20.00;10.30;;;8.20;99.90;;;;;;5111180;28;20075;-81
2021/12/17 07:40:10;;;;;;;23.27;10.40;;;8.10;99.90;;;;;;5094500;28;20048;-86
2021/12/17 07:42:36;;;;;;;26.13;12.55;;;8.10;99.90;;;;;;5078150;28;20044;-86
2021/12/17 07:45:03;;;;;;;19.67;10.65;;;8.10;99.90;;;;;;5074267;28;20036;-81
2021/12/17 07:47:29;;;;;;;28.90;14.02;;;8.10;99.90;;;;;;5077272;28;20127;-79
2021/12/17 07:49:55;;;;;;;30.15;12.85;;;8.10;99.90;;;;;;5078579;28;20551;-84
2021/12/17 07:52:20;;;;;;;30.75;13.70;;;8.10;99.90;;;;;;5094995;28;20035;-80
2021/12/17 07:54:46;;;;;;;31.35;13.77;;;8.10;99.90;;;;;;5074512;28;20044;-79
2021/12/17 07:57:12;;;;;;;27.23;12.48;;;8.10;99.90;;;;;;5075163;28;20093;-84
2021/12/17 07:59:39;;;;;;;21.77;10.93;;;8.20;99.90;;;;;;5076644;28;20067;-84
2021/12/17 08:02:06;;;;;;;27.27;12.82;;;8.30;99.90;;;;;;5078775;28;20043;-84
2021/12/17 08:04:32;;;;;;;20.35;11.45;;;8.20;99.90;;;;;;5078263;28;20027;-83
2021/12/17 08:06:58;;;;;;;28.00;11.82;;;8.20;99.90;;;;;;5095040;28;20583;-86
2021/12/17 08:09:24;;;;;;;20.70;11.57;;;8.20;99.90;;;;;;5078130;28;20126;-77
2021/12/17 08:11:55;;;;;;;24.00;12.60;;;8.20;99.90;;;;;;5078429;28;20035;-78
2021/12/17 08:14:22;;;;;;;20.83;10.82;;;8.20;99.90;;;;;;5070575;28;20044;-86
2021/12/17 08:17:01;;;;;;;25.50;12.05;;;8.20;99.90;;;;;;5076854;28;20036;-87
2021/12/17 08:25:15;;;;;;;19.42;11.18;;;8.30;99.90;;;;;;5093376;28;20135;-82
2021/12/17 08:32:41;;;;;;;20.25;11.10;;;8.30;99.90;;;;;;5107477;28;20048;-85
2021/12/17 08:35:08;;;;;;;18.10;10.38;;;8.30;99.90;;;;;;5083776;28;20496;-84
2021/12/17 08:37:33;;;;;;;21.58;10.60;;;8.30;99.90;;;;;;5077865;28;20040;-79
2021/12/17 08:40:00;;;;;;;26.35;12.15;;;8.30;99.90;;;;;;5070202;28;20040;-78
2021/12/17 08:42:26;;;;;;;24.65;11.68;;;8.40;99.90;;;;;;5074147;28;20201;-86
2021/12/17 08:44:52;;;;;;;21.25;11.13;;;8.40;99.90;;;;;;5082135;28;20035;-87
2021/12/17 08:47:18;;;;;;;25.83;12.35;;;8.40;99.90;;;;;;5074327;28;20408;-86
2021/12/17 08:49:44;;;;;;;27.67;11.77;;;8.40;99.90;;;;;;5056341;28;20040;-88
2021/12/17 08:52:13;;;;;;;25.42;12.25;;;8.40;99.90;;;;;;5057642;28;20131;-85
2021/12/17 08:54:39;;;;;;;21.95;11.00;;;8.30;99.90;;;;;;5057649;28;20051;-85
2021/12/17 08:57:05;;;;;;;24.85;11.63;;;8.50;99.90;;;;;;5074601;28;20082;-85
2021/12/17 08:59:31;;;;;;;18.63;10.75;;;8.40;99.90;;;;;;5056968;28;20036;-86
2021/12/17 09:01:57;;;;;;;30.80;12.95;;;8.40;99.90;;;;;;5057052;28;20052;-86
2021/12/17 09:04:23;;;;;;;19.55;11.15;;;8.50;99.90;;;;;;5073894;28;20071;-86
2021/12/17 09:06:49;;;;;;;20.13;11.35;;;8.40;99.90;;;;;;5057449;28;20043;-86
2021/12/17 09:09:19;;;;;;;17.52;10.50;;;8.50;99.90;;;;;;5056933;28;20499;-86
2021/12/17 09:11:45;;;;;;;19.65;10.57;;;8.50;99.90;;;;;;5057524;28;20044;-86
2021/12/17 09:14:11;;;;;;;18.13;9.95;;;8.50;99.90;;;;;;5073542;28;20082;-87
2021/12/17 09:16:37;;;;;;;22.40;10.65;;;8.50;99.90;;;;;;5038134;28;20041;-85
2021/12/17 09:19:03;;;;;;;18.30;9.90;;;8.50;99.90;;;;;;5056972;28;20040;-86
2021/12/17 09:21:30;;;;;;;17.90;10.60;;;8.50;99.90;;;;;;5057216;28;20459;-79
2021/12/17 09:23:55;;;;;;;19.23;9.93;;;8.60;99.90;;;;;;5056625;28;20537;-86
2021/12/17 09:26:22;;;;;;;18.40;9.63;;;8.60;99.90;;;;;;5073644;28;20052;-78
2021/12/17 09:28:49;;;;;;;17.80;10.23;;;8.60;99.90;;;;;;5057151;28;20044;-83
2021/12/17 09:31:15;;;;;;;20.10;10.13;;;8.60;99.90;;;;;;5056648;28;20040;-86
2021/12/17 09:33:42;;;;;;;17.55;9.82;;;8.60;99.90;;;;;;5056911;28;20048;-86
2021/12/17 09:36:09;;;;;;;19.27;10.25;;;8.60;99.90;;;;;;5057212;28;20036;-87
2021/12/17 09:38:34;;;;;;;17.83;9.88;;;8.60;99.90;;;;;;5073792;28;20075;-87
2021/12/17 09:41:00;;;;;;;20.60;9.90;;;8.70;99.90;;;;;;5056679;28;20109;-78
2021/12/17 09:43:29;;;;;;;16.42;9.25;;;8.70;99.90;;;;;;5056415;28;20046;-85
2021/12/17 09:45:56;;;;;;;20.15;9.23;;;8.70;99.90;;;;;;5056197;28;20146;-86
2021/12/17 09:48:22;;;;;;;17.98;9.82;;;8.70;99.90;;;;;;5056512;28;20044;-86
2021/12/17 09:50:48;;;;;;;16.08;9.23;;;8.80;99.90;;;;;;5056653;28;20051;-86
2021/12/17 09:53:14;;;;;;;15.38;9.77;;;8.80;99.90;;;;;;5073052;28;20040;-86
2021/12/17 09:55:40;;;;;;;18.40;9.68;;;8.80;99.90;;;;;;5056718;28;20093;-86
2021/12/17 09:58:06;;;;;;;18.00;9.55;;;8.80;99.90;;;;;;5055924;28;20036;-85
2021/12/17 10:00:31;;;;;;;17.67;9.27;;;8.80;99.90;;;;;;5056483;28;20145;-81
2021/12/17 10:02:57;;;;;;;15.73;9.60;;;8.90;99.90;;;;;;5056970;28;20059;-86
2021/12/17 10:05:25;;;;;;;16.45;9.75;;;8.80;99.90;;;;;;5055991;28;20432;-86
2021/12/17 10:07:57;;;;;;;18.42;10.63;;;8.80;99.90;;;;;;5056859;28;20036;-86
2021/12/17 10:10:32;;;;;;;24.00;11.80;;;8.90;99.90;;;;;;5073483;28;20109;-86
2021/12/17 10:13:09;;;;;;;18.27;9.98;;;8.90;99.90;;;;;;5072507;28;20130;-87
2021/12/17 10:15:37;;;;;;;16.35;9.88;;;9.00;99.90;;;;;;5073674;28;20089;-78
2021/12/17 10:18:03;;;;;;;17.10;10.32;;;8.90;99.90;;;;;;5071084;28;20036;-88
2021/12/17 10:20:32;;;;;;;15.50;8.57;;;8.90;99.90;;;;;;5056150;28;20051;-80
2021/12/17 10:23:07;;;;;;;15.57;8.90;;;9.00;99.90;;;;;;5070091;28;20044;-85
2021/12/17 10:25:35;;;;;;;17.52;9.27;;;9.00;99.90;;;;;;5055601;28;20139;-86
2021/12/17 10:28:05;;;;;;;16.52;9.40;;;9.00;99.90;;;;;;5056224;28;20048;-86
2021/12/17 10:30:37;;;;;;;15.18;8.88;;;9.00;99.90;;;;;;5055324;28;20081;-78
2021/12/17 10:33:10;;;;;;;15.23;8.52;;;9.00;99.90;;;;;;5072457;28;20040;-85
2021/12/17 10:35:44;;;;;;;15.43;8.75;;;9.10;99.90;;;;;;5056238;28;20507;-87
2021/12/17 10:38:14;;;;;;;14.85;8.73;;;9.10;99.90;;;;;;5055642;28;20059;-86
2021/12/17 10:40:51;;;;;;;16.48;9.38;;;9.10;99.90;;;;;;5055226;28;20036;-86
2021/12/17 10:43:24;;;;;;;14.13;8.27;;;9.10;99.90;;;;;;5055459;28;20044;-86
2021/12/17 10:46:55;;;;;;;15.25;8.40;;;9.20;99.90;;;;;;5072166;28;20073;-87
2021/12/17 10:54:11;;;;;;;13.43;8.43;;;9.20;99.90;;;;;;5089856;28;20130;-86
2021/12/17 10:56:47;;;;;;;14.73;9.35;;;9.20;99.90;;;;;;5056594;28;20052;-90
2021/12/17 10:59:14;;;;;;;12.90;8.52;;;9.20;99.90;;;;;;5054515;28;20503;-86
2021/12/17 11:01:46;;;;;;;14.27;8.63;;;9.20;99.90;;;;;;5055275;28;20048;-86
2021/12/17 11:04:23;;;;;;;13.05;8.45;;;9.30;99.90;;;;;;5055745;28;20032;-87
2021/12/17 11:06:54;;;;;;;14.43;8.30;;;9.30;99.90;;;;;;5055655;28;20265;-86
2021/12/17 11:09:57;;;;;;;12.27;8.23;;;9.30;99.90;;;;;;5072938;28;20430;-87
2021/12/17 11:12:23;;;;;;;15.57;8.75;;;9.40;99.90;;;;;;5072018;28;20302;-87
2021/12/17 11:14:50;;;;;;;12.07;8.02;;;9.30;99.90;;;;;;5053994;28;20051;-87
2021/12/17 11:17:20;;;;;;;12.20;8.43;;;9.30;99.90;;;;;;5075793;28;20058;-87
2021/12/17 11:19:49;;;;;;;15.18;8.68;;;9.40;99.90;;;;;;5059624;28;20083;-87
2021/12/17 11:22:16;;;;;;;11.80;8.50;;;9.40;99.90;;;;;;5075430;28;20427;-87
2021/12/17 11:24:42;;;;;;;13.57;9.00;;;9.30;99.90;;;;;;5059076;28;20035;-78
2021/12/17 11:27:07;;;;;;;12.23;8.35;;;9.40;99.90;;;;;;5075778;28;20498;-86
2021/12/17 11:29:34;;;;;;;14.55;9.25;;;9.40;99.90;;;;;;5058847;28;20130;-88
2021/12/17 11:32:02;;;;;;;15.85;9.40;;;9.40;99.90;;;;;;5057334;28;20474;-78
2021/12/17 11:34:30;;;;;;;12.68;7.70;;;9.50;99.90;;;;;;5059029;28;20043;-87
2021/12/17 11:36:58;;;;;;;11.38;7.82;;;9.50;99.90;;;;;;5074878;28;20048;-87
2021/12/17 11:39:30;;;;;;;12.77;8.38;;;9.50;99.90;;;;;;5059701;28;20615;-79
2021/12/17 11:42:18;;;;;;;12.38;8.43;;;9.50;99.90;;;;;;5055083;28;20040;-86
2021/12/17 11:44:53;;;;;;;14.07;7.88;;;9.50;99.90;;;;;;5080314;28;20047;-86
2021/12/17 11:47:20;;;;;;;13.77;8.55;;;9.50;99.90;;;;;;5057952;28;20079;-82
2021/12/17 11:49:49;;;;;;;11.57;7.93;;;9.60;99.90;;;;;;5073275;28;20492;-85
2021/12/17 11:52:34;;;;;;;12.55;8.55;;;9.60;99.90;;;;;;5057541;28;20036;-87
2021/12/17 11:55:27;;;;;;;13.00;8.38;;;9.60;99.90;;;;;;5058764;28;20111;-79
2021/12/17 11:58:04;;;;;;;13.27;7.68;;;9.70;99.90;;;;;;5071141;28;20060;-87
2021/12/17 12:05:07;;;;;;;11.13;7.90;;;9.70;99.90;;;;;;5082381;28;20043;-87
2021/12/17 12:08:56;;;;;;;11.23;7.65;;;9.70;99.90;;;;;;5067081;28;20052;-88
2021/12/17 12:11:29;;;;;;;11.32;8.25;;;9.80;99.90;;;;;;5080228;28;20040;-88
2021/12/17 12:13:56;;;;;;;12.70;7.82;;;9.90;99.90;;;;;;5059744;28;20056;-88
2021/12/17 12:16:28;;;;;;;11.40;8.25;;;9.90;99.90;;;;;;5057814;28;20079;-87
2021/12/17 12:19:10;;;;;;;12.50;8.00;;;9.90;99.90;;;;;;5073652;28;20530;-82
2021/12/17 12:21:40;;;;;;;11.07;8.10;;;9.90;99.90;;;;;;5058130;28;20136;-89
2021/12/17 12:24:09;;;;;;;9.75;7.18;;;9.90;99.90;;;;;;5058187;28;20122;-84
2021/12/17 12:26:53;;;;;;;8.88;6.75;;;9.90;99.90;;;;;;5058506;28;20407;-88
2021/12/17 12:29:24;;;;;;;10.00;7.47;;;9.90;99.90;;;;;;5075466;28;20063;-88
2021/12/17 12:31:53;;;;;;;11.48;7.78;;;9.90;99.90;;;;;;5057535;28;20048;-81
2021/12/17 12:34:29;;;;;;;14.13;8.48;;;9.90;99.90;;;;;;5058242;28;20040;-88
2021/12/17 12:37:07;;;;;;;15.80;8.93;;;9.90;99.90;;;;;;5074968;28;20044;-88
2021/12/17 12:40:02;;;;;;;13.27;8.00;;;10.00;99.90;;;;;;5058394;28;20071;-88
2021/12/17 12:42:36;;;;;;;11.65;7.95;;;9.90;99.90;;;;;;5058233;28;20071;-87
2021/12/17 12:45:03;;;;;;;12.23;7.88;;;9.90;99.90;;;;;;5057848;28;20043;-85
2021/12/17 12:47:35;;;;;;;10.85;7.25;;;9.90;99.90;;;;;;5074549;28;20059;-80
2021/12/17 12:50:06;;;;;;;13.63;8.30;;;10.00;99.90;;;;;;5058257;28;20044;-87
2021/12/17 12:52:32;;;;;;;12.68;8.50;;;9.90;99.90;;;;;;5057668;28;20044;-87
2021/12/17 12:55:17;;;;;;;10.18;7.88;;;9.90;99.90;;;;;;5058140;28;20048;-88
2021/12/17 12:57:49;;;;;;;11.65;7.85;;;9.90;99.90;;;;;;5057463;28;20051;-88
2021/12/17 13:00:21;;;;;;;13.88;8.30;;;9.90;99.90;;;;;;5057565;28;20097;-89
2021/12/17 13:03:09;;;;;;;14.73;8.63;;;9.90;99.90;;;;;;5074199;28;20079;-88
2021/12/17 13:05:37;;;;;;;12.65;9.15;;;9.90;99.90;;;;;;5058153;28;20036;-88
2021/12/17 13:08:06;;;;;;;11.00;7.35;;;9.80;99.90;;;;;;5057768;28;20040;-88
2021/12/17 13:10:44;;;;;;;10.73;7.82;;;9.80;99.90;;;;;;5058303;28;20072;-88
2021/12/17 13:13:38;;;;;;;10.23;6.97;;;9.80;99.90;;;;;;5057775;28;20055;-88
2021/12/17 13:16:15;;;;;;;9.98;7.70;;;9.80;99.90;;;;;;5073824;28;20491;-79
2021/12/17 13:24:16;;;;;;;15.20;8.40;;;9.80;99.90;;;;;;5074670;28;20059;-87
2021/12/17 13:26:44;;;;;;;13.48;8.77;;;9.80;99.90;;;;;;5057021;28;20105;-87
2021/12/17 13:29:29;;;;;;;11.38;8.07;;;9.80;99.90;;;;;;5057342;28;20036;-88
2021/12/17 13:32:02;;;;;;;10.30;7.93;;;9.80;99.90;;;;;;5057627;28;20057;-88
2021/12/17 13:34:29;;;;;;;;;;;9.80;99.90;;;;;;5073417;28;20047;-87
2021/12/17 13:37:01;;;;;;;12.40;8.27;;;9.70;99.90;;;;;;5057357;28;20006;-88
2021/12/17 13:39:40;;;;;;;17.15;9.82;;;9.70;99.90;;;;;;5074234;28;20047;-88
2021/12/17 13:42:07;;;;;;;11.60;8.52;;;9.70;99.90;;;;;;5056769;28;21027;-88
2021/12/17 13:44:51;;;;;;;11.73;8.25;;;9.70;99.90;;;;;;5054421;28;20035;-88
2021/12/17 13:47:21;;;;;;;9.77;7.85;;;9.70;99.90;;;;;;5047571;28;20056;-86
2021/12/17 13:50:10;;;;;;;12.25;8.35;;;9.70;99.90;;;;;;5036938;28;20047;-90
2021/12/17 13:52:47;;;;;;;12.00;9.25;;;9.70;99.90;;;;;;5038147;28;20083;-92
2021/12/17 13:55:16;;;;;;;13.23;8.95;;;9.70;99.90;;;;;;5053573;28;20040;-83
2021/12/17 13:57:43;;;;;;;13.43;10.13;;;9.70;99.90;;;;;;5034968;28;20132;-85
2021/12/17 14:00:13;;;;;;;12.90;9.70;;;9.70;99.90;;;;;;5051660;28;20036;-85
2021/12/17 14:02:41;;;;;;;12.10;8.82;;;9.70;99.90;;;;;;5036311;28;20048;-88
2021/12/17 14:05:10;;;;;;;11.13;7.80;;;9.70;99.90;;;;;;5036545;28;20051;-88
2021/12/17 14:07:38;;;;;;;16.95;9.73;;;9.70;99.90;;;;;;5037053;28;20446;-83
2021/12/17 14:10:17;;;;;;;10.75;8.38;;;9.70;99.90;;;;;;5033895;28;20090;-84
2021/12/17 14:13:29;;;;;;;12.23;8.35;;;9.70;99.90;;;;;;5019885;28;20083;-87
2021/12/17 14:20:45;;;;;;;9.02;7.18;;;9.60;99.90;;;;;;5065620;28;20558;-82
2021/12/17 14:24:31;;;;;;;10.20;7.88;;;9.70;99.90;;;;;;5056109;28;20055;-84
2021/12/17 14:27:12;;;;;;;8.60;6.72;;;9.60;99.90;;;;;;5047527;28;20518;-82
2021/12/17 14:29:38;;;;;;;10.23;6.95;;;9.60;99.90;;;;;;5035168;28;20071;-79
2021/12/17 14:32:04;;;;;;;12.00;8.35;;;9.70;99.90;;;;;;5034211;28;20150;-78
2021/12/17 14:34:40;;;;;;;10.70;7.57;;;9.70;99.90;;;;;;5018430;28;20512;-79
2021/12/17 14:37:06;;;;;;;11.40;8.57;;;9.70;99.90;;;;;;5037929;28;20054;-82
2021/12/17 14:39:35;;;;;;;8.63;6.68;;;9.60;99.90;;;;;;5035240;28;20045;-86
2021/12/17 14:42:04;;;;;;;14.00;8.13;;;9.60;99.90;;;;;;5036806;28;20045;-87
2021/12/17 14:47:30;;;;;;;9.52;7.63;;;9.60;99.90;;;;;;5055821;28;20143;-82
2021/12/17 15:06:01;;;;;;;4.78;4.15;;;9.60;99.90;;;;;;5048648;28;20143;-84
2021/12/17 15:08:30;;;;;;;5.40;4.13;;;9.60;99.90;;;;;;5038785;28;20040;-92
2021/12/17 15:10:56;;;;;;;5.18;4.07;;;9.50;99.90;;;;;;5039772;28;20078;-84
2021/12/17 15:13:22;;;;;;;8.70;4.47;;;9.50;99.90;;;;;;5035031;28;20534;-81
2021/12/17 15:15:48;;;;;;;6.25;4.43;;;9.50;99.90;;;;;;5028939;28;20076;-82
2021/12/17 15:18:17;;;;;;;6.85;4.95;;;9.60;99.90;;;;;;5055098;28;20060;-84
2021/12/17 15:20:44;;;;;;;6.60;4.55;;;9.50;99.90;;;;;;5018669;28;20044;-84
2021/12/17 15:23:11;;;;;;;7.05;5.50;;;9.50;99.90;;;;;;5035585;28;20048;-83
2021/12/17 15:25:39;;;;;;;7.97;5.75;;;9.50;99.90;;;;;;5039116;28;20036;-83
2021/12/17 15:28:06;;;;;;;6.22;5.15;;;9.50;99.90;;;;;;5037991;28;20094;-80
2021/12/17 15:30:37;;;;;;;7.15;5.97;;;9.50;99.90;;;;;;5038238;28;20169;-84
2021/12/17 15:33:03;;;;;;;7.65;6.10;;;9.50;99.90;;;;;;5037173;28;20040;-82
2021/12/17 15:35:29;;;;;;;10.05;6.47;;;9.50;99.90;;;;;;5055243;28;20048;-83
2021/12/17 15:37:57;;;;;;;7.47;5.63;;;9.50;99.90;;;;;;5055315;28;20044;-77
2021/12/17 15:40:24;;;;;;;7.88;6.07;;;9.40;99.90;;;;;;5053009;28;20084;-84
2021/12/17 15:42:50;;;;;;;9.77;6.20;;;9.40;99.90;;;;;;5051218;28;20045;-79
2021/12/17 15:45:16;;;;;;;9.43;6.88;;;9.40;99.90;;;;;;5066217;28;20413;-82
2021/12/17 15:47:43;;;;;;;6.38;5.72;;;9.50;99.90;;;;;;5053901;28;20101;-78
2021/12/17 15:50:11;;;;;;;7.30;5.53;;;9.40;99.90;;;;;;5054863;28;20048;-83
2021/12/17 15:52:47;;;;;;;6.93;5.45;;;9.40;99.90;;;;;;5038491;28;20090;-83
2021/12/17 15:55:25;;;;;;;8.23;5.40;;;9.40;99.90;;;;;;5043835;28;20063;-83
2021/12/17 15:57:54;;;;;;;6.97;5.00;;;9.40;99.90;;;;;;5043393;28;20397;-82
2021/12/17 16:00:22;;;;;;;8.35;5.00;;;9.40;99.90;;;;;;5044244;28;20174;-81
2021/12/17 16:02:47;;;;;;;9.05;6.30;;;9.50;99.90;;;;;;5037389;28;20041;-81
2021/12/17 16:05:16;;;;;;;8.35;6.68;;;9.50;99.90;;;;;;5038735;28;20025;-80
2021/12/17 16:07:42;;;;;;;6.13;5.43;;;9.40;99.90;;;;;;5017713;28;20047;-80
2021/12/17 16:21:05;;;;;;;8.63;6.57;;;9.40;99.90;;;;;;4972601;28;20054;-77
2021/12/17 16:23:58;;;;;;;6.95;6.15;;;9.40;99.90;;;;;;4957990;28;20042;-78
2021/12/17 16:26:25;;;;;;;8.15;6.60;;;9.40;99.90;;;;;;5015053;28;20495;-82
2021/12/17 16:28:52;;;;;;;6.93;5.63;;;9.40;99.90;;;;;;5045753;28;20155;-81
2021/12/17 16:31:34;;;;;;;8.43;6.43;;;9.30;99.90;;;;;;5036602;28;20041;-81
2021/12/17 16:34:02;;;;;;;6.35;5.40;;;9.30;99.90;;;;;;5006325;28;20049;-81
2021/12/17 16:36:33;;;;;;;6.32;5.70;;;9.40;99.90;;;;;;5036929;28;20390;-81
2021/12/17 16:39:01;;;;;;;7.28;6.53;;;9.30;99.90;;;;;;5032278;28;20076;-76
2021/12/17 16:41:47;;;;;;;7.38;6.13;;;9.40;99.90;;;;;;5033545;28;20413;-82
2021/12/17 16:44:15;;;;;;;8.77;6.47;;;9.40;99.90;;;;;;5034732;28;20040;-80
2021/12/17 16:49:13;;;;;;;8.80;7.47;;;9.30;99.90;;;;;;5057204;28;20050;-82